sensor_id;sensor_type;location;lat;lon;timestamp;P1;durP1;ratioP1;P2;durP2;ratioP2
49842;SDS011;55559;48.898;9.184;2023-08-20T00:00:01;14.73;;;7.05;;
49842;SDS011;55559;48.898;9.184;2023-08-20T00:02:37;8.38;;;5.25;;
49842;SDS011;55559;48.898;9.184;2023-08-20T00:05:06;12.77;;;6.50;;
49842;SDS011;55559;48.898;9.184;2023-08-20T00:07:34;9.32;;;6.43;;
49842;SDS011;55559;48.898;9.184;2023-08-20T00:10:02;9.75;;;6.78;;
49842;SDS011;55559;48.898;9.184;2023-08-20T00:12:29;10.25;;;6.63;;
49842;SDS011;55559;48.898;9.184;2023-08-20T00:14:59;16.83;;;7.22;;
49842;SDS011;55559;48.898;9.184;2023-08-20T00:17:30;17.45;;;7.13;;
49842;SDS011;55559;48.898;9.184;2023-08-20T00:19:58;10.15;;;6.85;;
49842;SDS011;55559;48.898;9.184;2023-08-20T00:22:25;11.85;;;7.05;;
49842;SDS011;55559;48.898;9.184;2023-08-20T00:24:53;9.73;;;6.80;;
49842;SDS011;55559;48.898;9.184;2023-08-20T00:27:20;11.55;;;8.48;;
49842;SDS011;55559;48.898;9.184;2023-08-20T00:29:47;14.30;;;8.18;;
49842;SDS011;55559;48.898;9.184;2023-08-20T00:32:16;11.63;;;7.55;;
49842;SDS011;55559;48.898;9.184;2023-08-20T00:34:43;15.00;;;8.00;;
49842;SDS011;55559;48.898;9.184;2023-08-20T00:37:10;14.20;;;7.28;;
49842;SDS011;55559;48.898;9.184;2023-08-20T00:39:38;9.02;;;6.82;;
49842;SDS011;55559;48.898;9.184;2023-08-20T00:42:05;14.82;;;7.75;;
49842;SDS011;55559;48.898;9.184;2023-08-20T00:44:32;15.32;;;8.02;;
49842;SDS011;55559;48.898;9.184;2023-08-20T00:47:00;12.10;;;8.45;;
49842;SDS011;55559;48.898;9.184;2023-08-20T00:49:29;9.68;;;7.85;;
49842;SDS011;55559;48.898;9.184;2023-08-20T00:51:57;10.75;;;8.02;;
49842;SDS011;55559;48.898;9.184;2023-08-20T00:54:24;12.77;;;8.15;;
49842;SDS011;55559;48.898;9.184;2023-08-20T00:56:52;11.02;;;8.45;;
49842;SDS011;55559;48.898;9.184;2023-08-20T00:59:19;11.45;;;8.30;;
49842;SDS011;55559;48.898;9.184;2023-08-20T01:01:47;14.25;;;8.00;;
49842;SDS011;55559;48.898;9.184;2023-08-20T01:04:14;13.65;;;8.27;;
49842;SDS011;55559;48.898;9.184;2023-08-20T01:06:44;8.40;;;7.50;;
49842;SDS011;55559;48.898;9.184;2023-08-20T01:09:17;11.43;;;7.75;;
49842;SDS011;55559;48.898;9.184;2023-08-20T01:11:49;17.88;;;9.10;;
49842;SDS011;55559;48.898;9.184;2023-08-20T01:14:19;13.27;;;8.00;;
49842;SDS011;55559;48.898;9.184;2023-08-20T01:16:47;12.20;;;8.38;;
49842;SDS011;55559;48.898;9.184;2023-08-20T01:19:16;15.40;;;8.55;;
49842;SDS011;55559;48.898;9.184;2023-08-20T01:21:47;14.27;;;7.75;;
49842;SDS011;55559;48.898;9.184;2023-08-20T01:24:17;15.50;;;8.30;;
49842;SDS011;55559;48.898;9.184;2023-08-20T01:26:56;16.45;;;8.23;;
49842;SDS011;55559;48.898;9.184;2023-08-20T01:29:28;13.13;;;8.30;;
49842;SDS011;55559;48.898;9.184;2023-08-20T01:31:56;12.57;;;8.68;;
49842;SDS011;55559;48.898;9.184;2023-08-20T01:34:23;12.27;;;8.18;;
49842;SDS011;55559;48.898;9.184;2023-08-20T01:36:50;12.75;;;7.70;;
49842;SDS011;55559;48.898;9.184;2023-08-20T01:39:17;15.07;;;8.43;;
49842;SDS011;55559;48.898;9.184;2023-08-20T01:41:44;13.63;;;8.82;;
49842;SDS011;55559;48.898;9.184;2023-08-20T01:44:12;9.98;;;8.43;;
49842;SDS011;55559;48.898;9.184;2023-08-20T01:46:40;13.20;;;8.18;;
49842;SDS011;55559;48.898;9.184;2023-08-20T01:49:07;10.80;;;7.75;;
49842;SDS011;55559;48.898;9.184;2023-08-20T01:51:34;18.30;;;8.80;;
49842;SDS011;55559;48.898;9.184;2023-08-20T01:54:02;15.45;;;9.30;;
49842;SDS011;55559;48.898;9.184;2023-08-20T01:56:29;17.00;;;8.50;;
49842;SDS011;55559;48.898;9.184;2023-08-20T01:58:57;16.92;;;9.60;;
49842;SDS011;55559;48.898;9.184;2023-08-20T02:01:24;13.90;;;8.68;;
49842;SDS011;55559;48.898;9.184;2023-08-20T02:03:54;17.02;;;8.75;;
49842;SDS011;55559;48.898;9.184;2023-08-20T02:06:21;13.07;;;8.57;;
49842;SDS011;55559;48.898;9.184;2023-08-20T02:08:48;15.05;;;8.75;;
49842;SDS011;55559;48.898;9.184;2023-08-20T02:11:15;11.90;;;9.10;;
49842;SDS011;55559;48.898;9.184;2023-08-20T02:13:45;12.70;;;9.93;;
49842;SDS011;55559;48.898;9.184;2023-08-20T02:16:12;11.02;;;8.65;;
49842;SDS011;55559;48.898;9.184;2023-08-20T02:18:41;12.98;;;8.82;;
49842;SDS011;55559;48.898;9.184;2023-08-20T02:21:10;14.50;;;9.85;;
49842;SDS011;55559;48.898;9.184;2023-08-20T02:23:37;12.52;;;9.38;;
49842;SDS011;55559;48.898;9.184;2023-08-20T02:26:05;19.00;;;10.70;;
49842;SDS011;55559;48.898;9.184;2023-08-20T02:28:33;14.15;;;9.55;;
49842;SDS011;55559;48.898;9.184;2023-08-20T02:31:03;15.13;;;9.95;;
49842;SDS011;55559;48.898;9.184;2023-08-20T02:33:30;13.45;;;9.63;;
49842;SDS011;55559;48.898;9.184;2023-08-20T02:36:00;16.65;;;11.10;;
49842;SDS011;55559;48.898;9.184;2023-08-20T02:38:29;10.32;;;9.20;;
49842;SDS011;55559;48.898;9.184;2023-08-20T02:40:56;14.13;;;10.68;;
49842;SDS011;55559;48.898;9.184;2023-08-20T02:43:23;13.82;;;10.23;;
49842;SDS011;55559;48.898;9.184;2023-08-20T02:45:50;15.32;;;10.38;;
49842;SDS011;55559;48.898;9.184;2023-08-20T02:48:17;15.80;;;10.30;;
49842;SDS011;55559;48.898;9.184;2023-08-20T02:50:44;20.10;;;10.63;;
49842;SDS011;55559;48.898;9.184;2023-08-20T02:53:11;15.48;;;11.05;;
49842;SDS011;55559;48.898;9.184;2023-08-20T02:55:40;12.13;;;10.65;;
49842;SDS011;55559;48.898;9.184;2023-08-20T02:58:07;15.85;;;11.18;;
49842;SDS011;55559;48.898;9.184;2023-08-20T03:00:35;15.38;;;11.50;;
49842;SDS011;55559;48.898;9.184;2023-08-20T03:03:02;15.27;;;11.18;;
49842;SDS011;55559;48.898;9.184;2023-08-20T03:05:33;16.20;;;10.68;;
49842;SDS011;55559;48.898;9.184;2023-08-20T03:08:00;12.45;;;10.60;;
49842;SDS011;55559;48.898;9.184;2023-08-20T03:10:29;14.18;;;10.57;;
49842;SDS011;55559;48.898;9.184;2023-08-20T03:12:58;15.55;;;11.05;;
49842;SDS011;55559;48.898;9.184;2023-08-20T03:15:25;13.95;;;10.52;;
49842;SDS011;55559;48.898;9.184;2023-08-20T03:17:52;17.30;;;10.65;;
49842;SDS011;55559;48.898;9.184;2023-08-20T03:20:19;14.15;;;10.90;;
49842;SDS011;55559;48.898;9.184;2023-08-20T03:22:46;12.73;;;11.43;;
49842;SDS011;55559;48.898;9.184;2023-08-20T03:25:14;20.30;;;10.77;;
49842;SDS011;55559;48.898;9.184;2023-08-20T03:27:41;12.20;;;10.63;;
49842;SDS011;55559;48.898;9.184;2023-08-20T03:30:25;20.35;;;12.05;;
49842;SDS011;55559;48.898;9.184;2023-08-20T03:32:54;18.63;;;12.75;;
49842;SDS011;55559;48.898;9.184;2023-08-20T03:35:21;15.25;;;12.68;;
49842;SDS011;55559;48.898;9.184;2023-08-20T03:37:48;17.58;;;13.15;;
49842;SDS011;55559;48.898;9.184;2023-08-20T03:40:15;20.42;;;13.93;;
49842;SDS011;55559;48.898;9.184;2023-08-20T03:42:43;20.10;;;13.25;;
49842;SDS011;55559;48.898;9.184;2023-08-20T03:45:10;16.25;;;12.70;;
49842;SDS011;55559;48.898;9.184;2023-08-20T03:47:40;15.63;;;13.18;;
49842;SDS011;55559;48.898;9.184;2023-08-20T03:50:09;19.33;;;13.32;;
49842;SDS011;55559;48.898;9.184;2023-08-20T03:52:36;17.63;;;11.50;;
49842;SDS011;55559;48.898;9.184;2023-08-20T03:55:05;21.52;;;12.57;;
49842;SDS011;55559;48.898;9.184;2023-08-20T03:57:32;14.70;;;13.20;;
49842;SDS011;55559;48.898;9.184;2023-08-20T03:59:59;17.88;;;13.55;;
49842;SDS011;55559;48.898;9.184;2023-08-20T04:02:26;14.73;;;11.98;;
49842;SDS011;55559;48.898;9.184;2023-08-20T04:04:55;16.90;;;11.93;;
49842;SDS011;55559;48.898;9.184;2023-08-20T04:07:23;14.75;;;12.27;;
49842;SDS011;55559;48.898;9.184;2023-08-20T04:09:50;18.77;;;12.60;;
49842;SDS011;55559;48.898;9.184;2023-08-20T04:12:18;17.33;;;12.98;;
49842;SDS011;55559;48.898;9.184;2023-08-20T04:14:45;14.07;;;12.57;;
49842;SDS011;55559;48.898;9.184;2023-08-20T04:17:12;16.52;;;13.13;;
49842;SDS011;55559;48.898;9.184;2023-08-20T04:19:39;18.80;;;12.70;;
49842;SDS011;55559;48.898;9.184;2023-08-20T04:22:08;16.70;;;13.00;;
49842;SDS011;55559;48.898;9.184;2023-08-20T04:24:35;18.60;;;13.65;;
49842;SDS011;55559;48.898;9.184;2023-08-20T04:27:02;20.17;;;15.18;;
49842;SDS011;55559;48.898;9.184;2023-08-20T04:29:29;24.98;;;16.77;;
49842;SDS011;55559;48.898;9.184;2023-08-20T04:31:56;17.63;;;14.05;;
49842;SDS011;55559;48.898;9.184;2023-08-20T04:34:23;20.42;;;15.18;;
49842;SDS011;55559;48.898;9.184;2023-08-20T04:36:52;22.92;;;14.85;;
49842;SDS011;55559;48.898;9.184;2023-08-20T04:39:21;19.90;;;15.98;;
49842;SDS011;55559;48.898;9.184;2023-08-20T04:41:51;23.45;;;16.23;;
49842;SDS011;55559;48.898;9.184;2023-08-20T04:44:20;25.40;;;15.60;;
49842;SDS011;55559;48.898;9.184;2023-08-20T04:46:48;22.33;;;15.45;;
49842;SDS011;55559;48.898;9.184;2023-08-20T04:49:17;23.50;;;15.48;;
49842;SDS011;55559;48.898;9.184;2023-08-20T04:51:44;19.02;;;15.40;;
49842;SDS011;55559;48.898;9.184;2023-08-20T04:54:11;22.00;;;14.20;;
49842;SDS011;55559;48.898;9.184;2023-08-20T04:56:40;22.00;;;14.45;;
49842;SDS011;55559;48.898;9.184;2023-08-20T04:59:09;15.40;;;13.35;;
49842;SDS011;55559;48.898;9.184;2023-08-20T05:01:55;13.98;;;12.57;;
49842;SDS011;55559;48.898;9.184;2023-08-20T05:04:36;17.95;;;13.00;;
49842;SDS011;55559;48.898;9.184;2023-08-20T05:07:03;21.17;;;12.20;;
49842;SDS011;55559;48.898;9.184;2023-08-20T05:09:30;17.10;;;12.77;;
49842;SDS011;55559;48.898;9.184;2023-08-20T05:11:59;18.17;;;12.30;;
49842;SDS011;55559;48.898;9.184;2023-08-20T05:14:26;16.20;;;12.60;;
49842;SDS011;55559;48.898;9.184;2023-08-20T05:16:54;16.65;;;11.60;;
49842;SDS011;55559;48.898;9.184;2023-08-20T05:19:21;21.23;;;12.98;;
49842;SDS011;55559;48.898;9.184;2023-08-20T05:21:48;17.35;;;11.43;;
49842;SDS011;55559;48.898;9.184;2023-08-20T05:24:15;19.08;;;12.32;;
49842;SDS011;55559;48.898;9.184;2023-08-20T05:26:43;19.40;;;11.50;;
49842;SDS011;55559;48.898;9.184;2023-08-20T05:29:12;14.82;;;10.95;;
49842;SDS011;55559;48.898;9.184;2023-08-20T05:31:39;12.50;;;9.98;;
49842;SDS011;55559;48.898;9.184;2023-08-20T05:34:06;15.32;;;11.18;;
49842;SDS011;55559;48.898;9.184;2023-08-20T05:36:33;15.35;;;10.80;;
49842;SDS011;55559;48.898;9.184;2023-08-20T05:39:01;13.45;;;9.77;;
49842;SDS011;55559;48.898;9.184;2023-08-20T05:41:28;16.40;;;11.02;;
49842;SDS011;55559;48.898;9.184;2023-08-20T05:43:55;13.90;;;10.02;;
49842;SDS011;55559;48.898;9.184;2023-08-20T05:46:24;12.98;;;9.65;;
49842;SDS011;55559;48.898;9.184;2023-08-20T05:48:51;16.40;;;9.98;;
49842;SDS011;55559;48.898;9.184;2023-08-20T05:51:19;10.90;;;9.32;;
49842;SDS011;55559;48.898;9.184;2023-08-20T05:53:46;13.40;;;9.48;;
49842;SDS011;55559;48.898;9.184;2023-08-20T05:56:13;15.88;;;11.13;;
49842;SDS011;55559;48.898;9.184;2023-08-20T05:58:40;15.05;;;10.07;;
49842;SDS011;55559;48.898;9.184;2023-08-20T06:01:07;10.85;;;8.88;;
49842;SDS011;55559;48.898;9.184;2023-08-20T06:03:36;15.88;;;8.63;;
49842;SDS011;55559;48.898;9.184;2023-08-20T06:06:03;15.52;;;7.47;;
49842;SDS011;55559;48.898;9.184;2023-08-20T06:08:30;7.35;;;6.63;;
49842;SDS011;55559;48.898;9.184;2023-08-20T06:10:57;13.38;;;7.05;;
49842;SDS011;55559;48.898;9.184;2023-08-20T06:13:24;14.82;;;7.13;;
49842;SDS011;55559;48.898;9.184;2023-08-20T06:15:51;18.08;;;6.68;;
49842;SDS011;55559;48.898;9.184;2023-08-20T06:18:18;8.90;;;6.07;;
49842;SDS011;55559;48.898;9.184;2023-08-20T06:20:47;12.77;;;6.15;;
49842;SDS011;55559;48.898;9.184;2023-08-20T06:23:14;16.35;;;6.53;;
49842;SDS011;55559;48.898;9.184;2023-08-20T06:25:41;13.93;;;7.60;;
49842;SDS011;55559;48.898;9.184;2023-08-20T06:28:08;9.82;;;6.65;;
49842;SDS011;55559;48.898;9.184;2023-08-20T06:30:35;12.60;;;7.20;;
49842;SDS011;55559;48.898;9.184;2023-08-20T06:33:03;10.55;;;6.65;;
49842;SDS011;55559;48.898;9.184;2023-08-20T06:35:30;11.90;;;6.65;;
49842;SDS011;55559;48.898;9.184;2023-08-20T06:37:59;12.15;;;8.32;;
49842;SDS011;55559;48.898;9.184;2023-08-20T06:40:26;13.02;;;7.57;;
49842;SDS011;55559;48.898;9.184;2023-08-20T06:42:53;15.20;;;9.75;;
49842;SDS011;55559;48.898;9.184;2023-08-20T06:45:20;14.75;;;8.25;;
49842;SDS011;55559;48.898;9.184;2023-08-20T06:47:47;11.13;;;9.43;;
49842;SDS011;55559;48.898;9.184;2023-08-20T06:50:14;17.80;;;9.55;;
49842;SDS011;55559;48.898;9.184;2023-08-20T06:52:41;11.07;;;8.93;;
49842;SDS011;55559;48.898;9.184;2023-08-20T06:55:09;16.90;;;9.45;;
49842;SDS011;55559;48.898;9.184;2023-08-20T06:57:37;16.42;;;8.73;;
49842;SDS011;55559;48.898;9.184;2023-08-20T07:00:04;12.02;;;8.82;;
49842;SDS011;55559;48.898;9.184;2023-08-20T07:02:31;11.82;;;9.63;;
49842;SDS011;55559;48.898;9.184;2023-08-20T07:04:58;12.57;;;9.35;;
49842;SDS011;55559;48.898;9.184;2023-08-20T07:07:25;14.18;;;10.35;;
49842;SDS011;55559;48.898;9.184;2023-08-20T07:09:52;16.73;;;9.15;;
49842;SDS011;55559;48.898;9.184;2023-08-20T07:12:21;13.38;;;8.65;;
49842;SDS011;55559;48.898;9.184;2023-08-20T07:14:48;13.30;;;9.77;;
49842;SDS011;55559;48.898;9.184;2023-08-20T07:17:15;12.88;;;8.90;;
49842;SDS011;55559;48.898;9.184;2023-08-20T07:19:42;13.93;;;8.40;;
49842;SDS011;55559;48.898;9.184;2023-08-20T07:22:09;13.43;;;9.10;;
49842;SDS011;55559;48.898;9.184;2023-08-20T07:24:37;12.88;;;9.55;;
49842;SDS011;55559;48.898;9.184;2023-08-20T07:27:04;16.42;;;10.00;;
49842;SDS011;55559;48.898;9.184;2023-08-20T07:29:38;15.65;;;9.02;;
49842;SDS011;55559;48.898;9.184;2023-08-20T07:32:05;22.08;;;10.32;;
49842;SDS011;55559;48.898;9.184;2023-08-20T07:34:32;21.35;;;9.63;;
49842;SDS011;55559;48.898;9.184;2023-08-20T07:37:00;18.75;;;9.20;;
49842;SDS011;55559;48.898;9.184;2023-08-20T07:39:28;13.20;;;9.45;;
49842;SDS011;55559;48.898;9.184;2023-08-20T07:41:55;11.02;;;9.40;;
49842;SDS011;55559;48.898;9.184;2023-08-20T07:44:22;12.10;;;8.00;;
49842;SDS011;55559;48.898;9.184;2023-08-20T07:46:50;18.38;;;8.13;;
49842;SDS011;55559;48.898;9.184;2023-08-20T07:49:17;14.35;;;9.07;;
49842;SDS011;55559;48.898;9.184;2023-08-20T07:51:44;10.20;;;7.55;;
49842;SDS011;55559;48.898;9.184;2023-08-20T07:54:12;19.70;;;8.85;;
49842;SDS011;55559;48.898;9.184;2023-08-20T07:56:39;16.30;;;9.32;;
49842;SDS011;55559;48.898;9.184;2023-08-20T07:59:06;16.20;;;8.55;;
49842;SDS011;55559;48.898;9.184;2023-08-20T08:01:33;12.88;;;9.13;;
49842;SDS011;55559;48.898;9.184;2023-08-20T08:04:01;14.55;;;8.90;;
49842;SDS011;55559;48.898;9.184;2023-08-20T08:06:28;20.08;;;9.27;;
49842;SDS011;55559;48.898;9.184;2023-08-20T08:08:55;14.02;;;8.30;;
49842;SDS011;55559;48.898;9.184;2023-08-20T08:11:22;12.05;;;8.13;;
49842;SDS011;55559;48.898;9.184;2023-08-20T08:13:50;12.95;;;7.63;;
49842;SDS011;55559;48.898;9.184;2023-08-20T08:16:17;15.05;;;8.55;;
49842;SDS011;55559;48.898;9.184;2023-08-20T08:18:44;11.75;;;8.40;;
49842;SDS011;55559;48.898;9.184;2023-08-20T08:21:12;9.80;;;7.60;;
49842;SDS011;55559;48.898;9.184;2023-08-20T08:23:39;20.60;;;7.55;;
49842;SDS011;55559;48.898;9.184;2023-08-20T08:26:06;12.80;;;6.75;;
49842;SDS011;55559;48.898;9.184;2023-08-20T08:28:33;9.15;;;7.32;;
49842;SDS011;55559;48.898;9.184;2023-08-20T08:31:00;16.95;;;7.22;;
49842;SDS011;55559;48.898;9.184;2023-08-20T08:33:27;15.82;;;7.68;;
49842;SDS011;55559;48.898;9.184;2023-08-20T08:35:54;12.82;;;7.40;;
49842;SDS011;55559;48.898;9.184;2023-08-20T08:38:23;9.55;;;6.93;;
49842;SDS011;55559;48.898;9.184;2023-08-20T08:40:49;13.32;;;6.93;;
49842;SDS011;55559;48.898;9.184;2023-08-20T08:43:16;17.88;;;7.10;;
49842;SDS011;55559;48.898;9.184;2023-08-20T08:45:44;9.68;;;6.28;;
49842;SDS011;55559;48.898;9.184;2023-08-20T08:48:12;13.73;;;6.40;;
49842;SDS011;55559;48.898;9.184;2023-08-20T08:50:40;17.38;;;7.93;;
49842;SDS011;55559;48.898;9.184;2023-08-20T08:53:07;15.95;;;6.15;;
49842;SDS011;55559;48.898;9.184;2023-08-20T08:55:36;13.18;;;6.35;;
49842;SDS011;55559;48.898;9.184;2023-08-20T08:58:03;8.75;;;5.88;;
49842;SDS011;55559;48.898;9.184;2023-08-20T09:00:30;10.98;;;6.38;;
49842;SDS011;55559;48.898;9.184;2023-08-20T09:02:58;18.20;;;6.47;;
49842;SDS011;55559;48.898;9.184;2023-08-20T09:05:25;14.35;;;6.05;;
49842;SDS011;55559;48.898;9.184;2023-08-20T09:07:55;14.32;;;7.47;;
49842;SDS011;55559;48.898;9.184;2023-08-20T09:10:22;8.20;;;5.85;;
49842;SDS011;55559;48.898;9.184;2023-08-20T09:12:50;7.13;;;4.95;;
49842;SDS011;55559;48.898;9.184;2023-08-20T09:15:17;13.02;;;5.38;;
49842;SDS011;55559;48.898;9.184;2023-08-20T09:17:44;11.68;;;5.72;;
49842;SDS011;55559;48.898;9.184;2023-08-20T09:20:13;9.65;;;5.63;;
49842;SDS011;55559;48.898;9.184;2023-08-20T09:22:40;11.63;;;5.68;;
49842;SDS011;55559;48.898;9.184;2023-08-20T09:25:15;12.98;;;5.47;;
49842;SDS011;55559;48.898;9.184;2023-08-20T09:27:42;8.60;;;5.38;;
49842;SDS011;55559;48.898;9.184;2023-08-20T09:30:13;12.80;;;5.70;;
49842;SDS011;55559;48.898;9.184;2023-08-20T09:32:44;15.57;;;5.82;;
49842;SDS011;55559;48.898;9.184;2023-08-20T09:35:17;15.50;;;6.28;;
49842;SDS011;55559;48.898;9.184;2023-08-20T09:37:44;12.70;;;5.60;;
49842;SDS011;55559;48.898;9.184;2023-08-20T09:40:11;12.88;;;5.43;;
49842;SDS011;55559;48.898;9.184;2023-08-20T09:42:38;15.32;;;5.25;;
49842;SDS011;55559;48.898;9.184;2023-08-20T09:45:06;12.32;;;5.43;;
49842;SDS011;55559;48.898;9.184;2023-08-20T09:47:35;8.57;;;4.55;;
49842;SDS011;55559;48.898;9.184;2023-08-20T09:50:03;10.55;;;5.10;;
49842;SDS011;55559;48.898;9.184;2023-08-20T09:52:35;12.68;;;5.07;;
49842;SDS011;55559;48.898;9.184;2023-08-20T09:55:06;9.85;;;4.13;;
49842;SDS011;55559;48.898;9.184;2023-08-20T09:57:35;16.45;;;4.93;;
49842;SDS011;55559;48.898;9.184;2023-08-20T10:00:03;5.20;;;3.22;;
49842;SDS011;55559;48.898;9.184;2023-08-20T10:02:40;11.23;;;3.67;;
49842;SDS011;55559;48.898;9.184;2023-08-20T10:05:08;12.63;;;3.72;;
49842;SDS011;55559;48.898;9.184;2023-08-20T10:07:35;14.50;;;2.92;;
49842;SDS011;55559;48.898;9.184;2023-08-20T10:10:03;9.32;;;2.83;;
49842;SDS011;55559;48.898;9.184;2023-08-20T10:12:30;4.93;;;2.55;;
49842;SDS011;55559;48.898;9.184;2023-08-20T10:15:00;5.03;;;2.55;;
49842;SDS011;55559;48.898;9.184;2023-08-20T10:17:28;7.75;;;3.58;;
49842;SDS011;55559;48.898;9.184;2023-08-20T10:19:58;4.22;;;2.88;;
49842;SDS011;55559;48.898;9.184;2023-08-20T10:22:31;11.23;;;3.20;;
49842;SDS011;55559;48.898;9.184;2023-08-20T10:24:59;6.50;;;2.88;;
49842;SDS011;55559;48.898;9.184;2023-08-20T10:27:28;8.15;;;2.85;;
49842;SDS011;55559;48.898;9.184;2023-08-20T10:29:58;5.47;;;2.60;;
49842;SDS011;55559;48.898;9.184;2023-08-20T10:35:08;12.37;;;3.53;;
49842;SDS011;55559;48.898;9.184;2023-08-20T10:37:35;7.22;;;3.08;;
49842;SDS011;55559;48.898;9.184;2023-08-20T10:40:03;7.85;;;2.97;;
49842;SDS011;55559;48.898;9.184;2023-08-20T10:42:30;4.65;;;2.15;;
49842;SDS011;55559;48.898;9.184;2023-08-20T10:44:58;7.20;;;2.72;;
49842;SDS011;55559;48.898;9.184;2023-08-20T10:47:24;9.73;;;2.58;;
49842;SDS011;55559;48.898;9.184;2023-08-20T10:49:52;12.98;;;3.00;;
49842;SDS011;55559;48.898;9.184;2023-08-20T10:52:20;10.77;;;3.42;;
49842;SDS011;55559;48.898;9.184;2023-08-20T10:54:49;6.75;;;2.35;;
49842;SDS011;55559;48.898;9.184;2023-08-20T10:57:16;8.73;;;2.47;;
49842;SDS011;55559;48.898;9.184;2023-08-20T10:59:55;9.98;;;2.15;;
49842;SDS011;55559;48.898;9.184;2023-08-20T11:02:23;6.65;;;2.90;;
49842;SDS011;55559;48.898;9.184;2023-08-20T11:04:50;10.65;;;3.33;;
49842;SDS011;55559;48.898;9.184;2023-08-20T11:07:17;3.75;;;2.50;;
49842;SDS011;55559;48.898;9.184;2023-08-20T11:09:45;10.25;;;2.67;;
49842;SDS011;55559;48.898;9.184;2023-08-20T11:12:14;16.52;;;2.63;;
49842;SDS011;55559;48.898;9.184;2023-08-20T11:14:41;8.48;;;2.20;;
49842;SDS011;55559;48.898;9.184;2023-08-20T11:17:08;6.45;;;2.65;;
49842;SDS011;55559;48.898;9.184;2023-08-20T11:19:35;10.00;;;2.40;;
49842;SDS011;55559;48.898;9.184;2023-08-20T11:22:03;8.80;;;2.92;;
49842;SDS011;55559;48.898;9.184;2023-08-20T11:24:30;6.70;;;2.50;;
49842;SDS011;55559;48.898;9.184;2023-08-20T11:26:59;8.55;;;2.30;;
49842;SDS011;55559;48.898;9.184;2023-08-20T11:29:26;6.40;;;1.80;;
49842;SDS011;55559;48.898;9.184;2023-08-20T11:31:53;10.52;;;2.05;;
49842;SDS011;55559;48.898;9.184;2023-08-20T11:34:20;11.00;;;2.50;;
49842;SDS011;55559;48.898;9.184;2023-08-20T11:36:49;10.00;;;2.35;;
49842;SDS011;55559;48.898;9.184;2023-08-20T11:39:17;8.07;;;1.90;;
49842;SDS011;55559;48.898;9.184;2023-08-20T11:41:44;4.68;;;2.20;;
49842;SDS011;55559;48.898;9.184;2023-08-20T11:44:18;4.82;;;2.40;;
49842;SDS011;55559;48.898;9.184;2023-08-20T11:46:45;6.18;;;1.73;;
49842;SDS011;55559;48.898;9.184;2023-08-20T11:49:12;4.20;;;1.70;;
49842;SDS011;55559;48.898;9.184;2023-08-20T11:51:40;6.78;;;1.75;;
49842;SDS011;55559;48.898;9.184;2023-08-20T11:54:08;7.85;;;2.35;;
49842;SDS011;55559;48.898;9.184;2023-08-20T11:56:35;7.15;;;1.90;;
49842;SDS011;55559;48.898;9.184;2023-08-20T11:59:04;9.68;;;2.30;;
49842;SDS011;55559;48.898;9.184;2023-08-20T12:01:32;6.80;;;2.42;;
49842;SDS011;55559;48.898;9.184;2023-08-20T12:04:00;6.30;;;2.30;;
49842;SDS011;55559;48.898;9.184;2023-08-20T12:06:27;7.43;;;1.85;;
49842;SDS011;55559;48.898;9.184;2023-08-20T12:08:56;5.28;;;2.20;;
49842;SDS011;55559;48.898;9.184;2023-08-20T12:11:24;6.15;;;2.80;;
49842;SDS011;55559;48.898;9.184;2023-08-20T12:13:51;7.85;;;2.55;;
49842;SDS011;55559;48.898;9.184;2023-08-20T12:16:21;6.57;;;1.70;;
49842;SDS011;55559;48.898;9.184;2023-08-20T12:18:50;5.82;;;2.20;;
49842;SDS011;55559;48.898;9.184;2023-08-20T12:21:18;8.15;;;2.10;;
49842;SDS011;55559;48.898;9.184;2023-08-20T12:23:45;5.25;;;2.50;;
49842;SDS011;55559;48.898;9.184;2023-08-20T12:26:12;3.97;;;2.47;;
49842;SDS011;55559;48.898;9.184;2023-08-20T12:28:39;11.02;;;2.00;;
49842;SDS011;55559;48.898;9.184;2023-08-20T12:31:07;8.23;;;2.20;;
49842;SDS011;55559;48.898;9.184;2023-08-20T12:33:34;5.38;;;1.88;;
49842;SDS011;55559;48.898;9.184;2023-08-20T12:36:02;9.93;;;2.67;;
49842;SDS011;55559;48.898;9.184;2023-08-20T12:38:29;4.68;;;2.10;;
49842;SDS011;55559;48.898;9.184;2023-08-20T12:40:59;7.22;;;2.38;;
49842;SDS011;55559;48.898;9.184;2023-08-20T12:43:26;6.07;;;1.92;;
49842;SDS011;55559;48.898;9.184;2023-08-20T12:45:53;13.15;;;2.63;;
49842;SDS011;55559;48.898;9.184;2023-08-20T12:48:20;8.43;;;1.80;;
49842;SDS011;55559;48.898;9.184;2023-08-20T12:50:47;6.63;;;1.70;;
49842;SDS011;55559;48.898;9.184;2023-08-20T12:53:16;2.90;;;1.30;;
49842;SDS011;55559;48.898;9.184;2023-08-20T12:55:44;3.20;;;1.40;;
49842;SDS011;55559;48.898;9.184;2023-08-20T12:58:11;7.38;;;1.58;;
49842;SDS011;55559;48.898;9.184;2023-08-20T13:00:38;5.88;;;1.30;;
49842;SDS011;55559;48.898;9.184;2023-08-20T13:03:05;9.57;;;1.48;;
49842;SDS011;55559;48.898;9.184;2023-08-20T13:05:33;8.43;;;1.77;;
49842;SDS011;55559;48.898;9.184;2023-08-20T13:08:00;7.88;;;1.30;;
49842;SDS011;55559;48.898;9.184;2023-08-20T13:10:29;3.63;;;1.45;;
49842;SDS011;55559;48.898;9.184;2023-08-20T13:12:59;8.40;;;1.52;;
49842;SDS011;55559;48.898;9.184;2023-08-20T13:15:27;7.57;;;1.80;;
49842;SDS011;55559;48.898;9.184;2023-08-20T13:17:54;12.10;;;1.73;;
49842;SDS011;55559;48.898;9.184;2023-08-20T13:20:21;4.35;;;1.30;;
49842;SDS011;55559;48.898;9.184;2023-08-20T13:22:50;11.63;;;1.42;;
49842;SDS011;55559;48.898;9.184;2023-08-20T13:25:18;5.93;;;1.20;;
49842;SDS011;55559;48.898;9.184;2023-08-20T13:27:48;6.15;;;1.33;;
49842;SDS011;55559;48.898;9.184;2023-08-20T13:30:15;5.65;;;1.13;;
49842;SDS011;55559;48.898;9.184;2023-08-20T13:32:43;5.90;;;1.52;;
49842;SDS011;55559;48.898;9.184;2023-08-20T13:35:10;8.00;;;1.75;;
49842;SDS011;55559;48.898;9.184;2023-08-20T13:37:37;7.35;;;1.38;;
49842;SDS011;55559;48.898;9.184;2023-08-20T13:40:05;4.85;;;1.30;;
49842;SDS011;55559;48.898;9.184;2023-08-20T13:42:35;6.78;;;1.52;;
49842;SDS011;55559;48.898;9.184;2023-08-20T13:45:03;14.70;;;1.60;;
49842;SDS011;55559;48.898;9.184;2023-08-20T13:47:31;7.90;;;1.80;;
49842;SDS011;55559;48.898;9.184;2023-08-20T13:49:59;9.35;;;1.27;;
49842;SDS011;55559;48.898;9.184;2023-08-20T13:52:26;12.75;;;1.73;;
49842;SDS011;55559;48.898;9.184;2023-08-20T13:54:53;14.00;;;1.58;;
49842;SDS011;55559;48.898;9.184;2023-08-20T13:57:20;7.40;;;1.55;;
49842;SDS011;55559;48.898;9.184;2023-08-20T13:59:47;16.60;;;1.55;;
49842;SDS011;55559;48.898;9.184;2023-08-20T14:02:15;5.65;;;1.02;;
49842;SDS011;55559;48.898;9.184;2023-08-20T14:04:43;6.25;;;1.50;;
49842;SDS011;55559;48.898;9.184;2023-08-20T14:07:10;9.15;;;1.83;;
49842;SDS011;55559;48.898;9.184;2023-08-20T14:09:37;4.82;;;1.35;;
49842;SDS011;55559;48.898;9.184;2023-08-20T14:12:05;13.93;;;1.88;;
49842;SDS011;55559;48.898;9.184;2023-08-20T14:14:32;8.52;;;1.27;;
49842;SDS011;55559;48.898;9.184;2023-08-20T14:16:59;3.55;;;1.70;;
49842;SDS011;55559;48.898;9.184;2023-08-20T14:19:29;6.68;;;1.60;;
49842;SDS011;55559;48.898;9.184;2023-08-20T14:21:57;4.55;;;1.33;;
49842;SDS011;55559;48.898;9.184;2023-08-20T14:24:24;6.90;;;1.15;;
49842;SDS011;55559;48.898;9.184;2023-08-20T14:26:51;3.33;;;1.20;;
49842;SDS011;55559;48.898;9.184;2023-08-20T14:29:18;4.57;;;1.35;;
49842;SDS011;55559;48.898;9.184;2023-08-20T14:31:45;6.32;;;1.50;;
49842;SDS011;55559;48.898;9.184;2023-08-20T14:34:12;8.20;;;1.27;;
49842;SDS011;55559;48.898;9.184;2023-08-20T14:36:40;11.38;;;1.25;;
49842;SDS011;55559;48.898;9.184;2023-08-20T14:39:07;6.95;;;1.17;;
49842;SDS011;55559;48.898;9.184;2023-08-20T14:41:34;3.85;;;1.10;;